sensor_id;sensor_type;location;lat;lon;timestamp;P1;durP1;ratioP1;P2;durP2;ratioP2
52948;SDS011;38812;50.942;3.644;2023-04-25T00:00:19;17.52;;;5.00;;
52948;SDS011;38812;50.942;3.644;2023-04-25T00:02:44;17.20;;;5.05;;
52948;SDS011;38812;50.942;3.644;2023-04-25T00:05:11;30.02;;;6.18;;
52948;SDS011;38812;50.942;3.644;2023-04-25T00:07:37;19.25;;;5.53;;
52948;SDS011;38812;50.942;3.644;2023-04-25T00:10:03;22.75;;;5.90;;
52948;SDS011;38812;50.942;3.644;2023-04-25T00:12:29;20.85;;;5.28;;
52948;SDS011;38812;50.942;3.644;2023-04-25T00:14:54;12.80;;;4.53;;
52948;SDS011;38812;50.942;3.644;2023-04-25T00:17:22;16.75;;;5.60;;
52948;SDS011;38812;50.942;3.644;2023-04-25T00:19:49;23.83;;;5.47;;
52948;SDS011;38812;50.942;3.644;2023-04-25T00:22:15;18.85;;;5.60;;
52948;SDS011;38812;50.942;3.644;2023-04-25T00:24:41;28.35;;;7.85;;
52948;SDS011;38812;50.942;3.644;2023-04-25T00:27:06;21.50;;;5.07;;
52948;SDS011;38812;50.942;3.644;2023-04-25T00:29:32;22.80;;;5.53;;
52948;SDS011;38812;50.942;3.644;2023-04-25T00:31:58;26.08;;;5.88;;
52948;SDS011;38812;50.942;3.644;2023-04-25T00:34:23;20.25;;;4.50;;
52948;SDS011;38812;50.942;3.644;2023-04-25T00:36:49;25.38;;;8.05;;
52948;SDS011;38812;50.942;3.644;2023-04-25T00:39:14;20.42;;;6.57;;
52948;SDS011;38812;50.942;3.644;2023-04-25T00:41:40;18.67;;;6.60;;
52948;SDS011;38812;50.942;3.644;2023-04-25T00:44:08;22.27;;;6.63;;
52948;SDS011;38812;50.942;3.644;2023-04-25T00:46:36;24.75;;;6.38;;
52948;SDS011;38812;50.942;3.644;2023-04-25T00:49:01;18.92;;;6.07;;
52948;SDS011;38812;50.942;3.644;2023-04-25T00:51:27;27.25;;;7.82;;
52948;SDS011;38812;50.942;3.644;2023-04-25T00:53:53;24.25;;;6.95;;
52948;SDS011;38812;50.942;3.644;2023-04-25T00:56:19;19.52;;;7.53;;
52948;SDS011;38812;50.942;3.644;2023-04-25T00:58:46;20.40;;;6.15;;
52948;SDS011;38812;50.942;3.644;2023-04-25T01:01:13;28.13;;;6.30;;
52948;SDS011;38812;50.942;3.644;2023-04-25T01:03:39;23.10;;;6.72;;
52948;SDS011;38812;50.942;3.644;2023-04-25T01:06:10;25.92;;;5.75;;
52948;SDS011;38812;50.942;3.644;2023-04-25T01:08:37;20.27;;;5.03;;
52948;SDS011;38812;50.942;3.644;2023-04-25T01:11:03;19.60;;;5.60;;
52948;SDS011;38812;50.942;3.644;2023-04-25T01:13:29;24.65;;;5.75;;
52948;SDS011;38812;50.942;3.644;2023-04-25T01:15:56;26.08;;;5.38;;
52948;SDS011;38812;50.942;3.644;2023-04-25T01:18:22;28.15;;;5.13;;
52948;SDS011;38812;50.942;3.644;2023-04-25T01:20:49;25.55;;;4.40;;
52948;SDS011;38812;50.942;3.644;2023-04-25T01:23:16;25.38;;;4.55;;
52948;SDS011;38812;50.942;3.644;2023-04-25T01:25:43;20.48;;;4.68;;
52948;SDS011;38812;50.942;3.644;2023-04-25T01:28:08;25.73;;;5.03;;
52948;SDS011;38812;50.942;3.644;2023-04-25T01:30:34;21.05;;;4.38;;
52948;SDS011;38812;50.942;3.644;2023-04-25T01:33:00;16.55;;;5.35;;
52948;SDS011;38812;50.942;3.644;2023-04-25T01:35:26;23.55;;;4.18;;
52948;SDS011;38812;50.942;3.644;2023-04-25T01:37:52;21.63;;;5.72;;
52948;SDS011;38812;50.942;3.644;2023-04-25T01:40:17;28.52;;;5.07;;
52948;SDS011;38812;50.942;3.644;2023-04-25T01:42:44;30.88;;;5.00;;
52948;SDS011;38812;50.942;3.644;2023-04-25T01:45:10;16.20;;;4.80;;
52948;SDS011;38812;50.942;3.644;2023-04-25T01:47:37;26.13;;;5.30;;
52948;SDS011;38812;50.942;3.644;2023-04-25T01:50:05;25.02;;;5.60;;
52948;SDS011;38812;50.942;3.644;2023-04-25T01:52:31;23.17;;;4.55;;
52948;SDS011;38812;50.942;3.644;2023-04-25T01:54:57;22.40;;;5.35;;
52948;SDS011;38812;50.942;3.644;2023-04-25T01:57:24;22.95;;;4.47;;
52948;SDS011;38812;50.942;3.644;2023-04-25T01:59:49;31.25;;;5.43;;
52948;SDS011;38812;50.942;3.644;2023-04-25T02:02:16;15.82;;;5.03;;
52948;SDS011;38812;50.942;3.644;2023-04-25T02:04:41;16.70;;;6.63;;
52948;SDS011;38812;50.942;3.644;2023-04-25T02:07:06;19.42;;;4.65;;
52948;SDS011;38812;50.942;3.644;2023-04-25T02:09:32;30.02;;;5.30;;
52948;SDS011;38812;50.942;3.644;2023-04-25T02:11:57;15.98;;;3.83;;
52948;SDS011;38812;50.942;3.644;2023-04-25T02:14:23;30.08;;;5.43;;
52948;SDS011;38812;50.942;3.644;2023-04-25T02:16:48;20.02;;;4.47;;
52948;SDS011;38812;50.942;3.644;2023-04-25T02:19:16;13.25;;;4.22;;
52948;SDS011;38812;50.942;3.644;2023-04-25T02:21:41;13.85;;;3.22;;
52948;SDS011;38812;50.942;3.644;2023-04-25T02:24:07;15.40;;;3.25;;
52948;SDS011;38812;50.942;3.644;2023-04-25T02:26:33;19.92;;;3.53;;
52948;SDS011;38812;50.942;3.644;2023-04-25T02:28:58;11.88;;;3.35;;
52948;SDS011;38812;50.942;3.644;2023-04-25T02:31:23;16.15;;;3.10;;
52948;SDS011;38812;50.942;3.644;2023-04-25T02:33:49;15.98;;;3.30;;
52948;SDS011;38812;50.942;3.644;2023-04-25T02:36:14;13.80;;;4.10;;
52948;SDS011;38812;50.942;3.644;2023-04-25T02:38:40;17.27;;;4.25;;
52948;SDS011;38812;50.942;3.644;2023-04-25T02:41:05;22.60;;;5.93;;
52948;SDS011;38812;50.942;3.644;2023-04-25T02:43:31;17.50;;;3.72;;
52948;SDS011;38812;50.942;3.644;2023-04-25T02:45:56;13.63;;;3.60;;
52948;SDS011;38812;50.942;3.644;2023-04-25T02:48:21;21.95;;;3.63;;
52948;SDS011;38812;50.942;3.644;2023-04-25T02:50:47;19.77;;;3.95;;
52948;SDS011;38812;50.942;3.644;2023-04-25T02:53:12;15.07;;;3.55;;
52948;SDS011;38812;50.942;3.644;2023-04-25T02:55:38;16.02;;;4.30;;
52948;SDS011;38812;50.942;3.644;2023-04-25T02:58:04;15.23;;;3.92;;
52948;SDS011;38812;50.942;3.644;2023-04-25T03:00:30;13.15;;;3.85;;
52948;SDS011;38812;50.942;3.644;2023-04-25T03:02:55;14.60;;;3.75;;
52948;SDS011;38812;50.942;3.644;2023-04-25T03:05:20;22.95;;;4.35;;
52948;SDS011;38812;50.942;3.644;2023-04-25T03:07:46;17.45;;;4.40;;
52948;SDS011;38812;50.942;3.644;2023-04-25T03:10:11;17.75;;;4.43;;
52948;SDS011;38812;50.942;3.644;2023-04-25T03:12:37;11.82;;;3.47;;
52948;SDS011;38812;50.942;3.644;2023-04-25T03:15:02;18.30;;;4.88;;
52948;SDS011;38812;50.942;3.644;2023-04-25T03:17:28;22.85;;;3.75;;
52948;SDS011;38812;50.942;3.644;2023-04-25T03:19:54;10.95;;;3.85;;
52948;SDS011;38812;50.942;3.644;2023-04-25T03:22:20;22.23;;;4.20;;
52948;SDS011;38812;50.942;3.644;2023-04-25T03:24:45;14.55;;;3.65;;
52948;SDS011;38812;50.942;3.644;2023-04-25T03:27:11;14.38;;;4.32;;
52948;SDS011;38812;50.942;3.644;2023-04-25T03:29:37;21.08;;;3.63;;
52948;SDS011;38812;50.942;3.644;2023-04-25T03:32:02;21.42;;;3.90;;
52948;SDS011;38812;50.942;3.644;2023-04-25T03:34:27;20.15;;;4.45;;
52948;SDS011;38812;50.942;3.644;2023-04-25T03:36:53;20.50;;;5.00;;
52948;SDS011;38812;50.942;3.644;2023-04-25T03:39:18;24.70;;;4.55;;
52948;SDS011;38812;50.942;3.644;2023-04-25T03:41:44;16.65;;;4.03;;
52948;SDS011;38812;50.942;3.644;2023-04-25T03:44:09;16.38;;;3.83;;
52948;SDS011;38812;50.942;3.644;2023-04-25T03:46:35;18.98;;;3.97;;
52948;SDS011;38812;50.942;3.644;2023-04-25T03:49:00;22.02;;;3.97;;
52948;SDS011;38812;50.942;3.644;2023-04-25T03:51:26;16.63;;;4.57;;
52948;SDS011;38812;50.942;3.644;2023-04-25T03:53:51;21.00;;;4.38;;
52948;SDS011;38812;50.942;3.644;2023-04-25T03:56:17;21.80;;;4.68;;
52948;SDS011;38812;50.942;3.644;2023-04-25T03:58:42;21.50;;;4.18;;
52948;SDS011;38812;50.942;3.644;2023-04-25T04:01:08;17.35;;;4.00;;
52948;SDS011;38812;50.942;3.644;2023-04-25T04:03:34;11.80;;;3.60;;
52948;SDS011;38812;50.942;3.644;2023-04-25T04:06:05;30.88;;;5.32;;
52948;SDS011;38812;50.942;3.644;2023-04-25T04:08:32;22.02;;;4.05;;
52948;SDS011;38812;50.942;3.644;2023-04-25T04:10:58;13.50;;;4.18;;
52948;SDS011;38812;50.942;3.644;2023-04-25T04:13:25;29.48;;;4.85;;
52948;SDS011;38812;50.942;3.644;2023-04-25T04:15:51;16.83;;;5.32;;
52948;SDS011;38812;50.942;3.644;2023-04-25T04:18:17;16.17;;;3.97;;
52948;SDS011;38812;50.942;3.644;2023-04-25T04:20:42;23.58;;;4.72;;
52948;SDS011;38812;50.942;3.644;2023-04-25T04:23:08;27.30;;;5.72;;
52948;SDS011;38812;50.942;3.644;2023-04-25T04:25:33;16.08;;;5.18;;
52948;SDS011;38812;50.942;3.644;2023-04-25T04:27:59;14.93;;;3.95;;
52948;SDS011;38812;50.942;3.644;2023-04-25T04:30:25;11.30;;;3.30;;
52948;SDS011;38812;50.942;3.644;2023-04-25T04:32:54;20.35;;;4.65;;
52948;SDS011;38812;50.942;3.644;2023-04-25T04:35:20;13.40;;;3.25;;
52948;SDS011;38812;50.942;3.644;2023-04-25T04:37:46;23.92;;;3.60;;
52948;SDS011;38812;50.942;3.644;2023-04-25T04:40:12;20.42;;;4.25;;
52948;SDS011;38812;50.942;3.644;2023-04-25T04:42:40;21.70;;;3.80;;
52948;SDS011;38812;50.942;3.644;2023-04-25T04:45:06;18.55;;;3.47;;
52948;SDS011;38812;50.942;3.644;2023-04-25T04:47:32;15.63;;;3.65;;
52948;SDS011;38812;50.942;3.644;2023-04-25T04:49:58;14.80;;;3.97;;
52948;SDS011;38812;50.942;3.644;2023-04-25T04:52:24;18.65;;;5.75;;
52948;SDS011;38812;50.942;3.644;2023-04-25T04:54:49;20.25;;;4.45;;
52948;SDS011;38812;50.942;3.644;2023-04-25T04:57:15;20.40;;;6.07;;
52948;SDS011;38812;50.942;3.644;2023-04-25T04:59:41;19.20;;;4.65;;
52948;SDS011;38812;50.942;3.644;2023-04-25T05:02:06;15.00;;;4.55;;
52948;SDS011;38812;50.942;3.644;2023-04-25T05:04:32;12.70;;;3.08;;
52948;SDS011;38812;50.942;3.644;2023-04-25T05:06:57;10.65;;;3.13;;
52948;SDS011;38812;50.942;3.644;2023-04-25T05:09:23;20.65;;;4.07;;
52948;SDS011;38812;50.942;3.644;2023-04-25T05:11:50;13.27;;;3.55;;
52948;SDS011;38812;50.942;3.644;2023-04-25T05:14:16;12.13;;;3.20;;
52948;SDS011;38812;50.942;3.644;2023-04-25T05:16:42;14.88;;;4.03;;
52948;SDS011;38812;50.942;3.644;2023-04-25T05:19:08;12.48;;;3.30;;
52948;SDS011;38812;50.942;3.644;2023-04-25T05:21:33;15.77;;;3.60;;
52948;SDS011;38812;50.942;3.644;2023-04-25T05:23:59;15.48;;;4.13;;
52948;SDS011;38812;50.942;3.644;2023-04-25T05:26:25;12.85;;;3.47;;
52948;SDS011;38812;50.942;3.644;2023-04-25T05:28:51;11.18;;;3.63;;
52948;SDS011;38812;50.942;3.644;2023-04-25T05:31:16;11.40;;;3.20;;
52948;SDS011;38812;50.942;3.644;2023-04-25T05:33:41;18.50;;;3.42;;
52948;SDS011;38812;50.942;3.644;2023-04-25T05:36:07;12.25;;;3.58;;
52948;SDS011;38812;50.942;3.644;2023-04-25T05:38:32;14.02;;;2.85;;
52948;SDS011;38812;50.942;3.644;2023-04-25T05:40:58;12.35;;;3.20;;
52948;SDS011;38812;50.942;3.644;2023-04-25T05:43:23;15.18;;;3.03;;
52948;SDS011;38812;50.942;3.644;2023-04-25T05:45:49;12.15;;;2.83;;
52948;SDS011;38812;50.942;3.644;2023-04-25T05:48:14;15.75;;;2.95;;
52948;SDS011;38812;50.942;3.644;2023-04-25T05:50:39;16.83;;;3.22;;
52948;SDS011;38812;50.942;3.644;2023-04-25T05:53:05;13.18;;;3.85;;
52948;SDS011;38812;50.942;3.644;2023-04-25T05:55:30;8.70;;;3.67;;
52948;SDS011;38812;50.942;3.644;2023-04-25T05:57:56;9.63;;;3.00;;
52948;SDS011;38812;50.942;3.644;2023-04-25T06:00:21;19.02;;;3.05;;
52948;SDS011;38812;50.942;3.644;2023-04-25T06:02:47;11.00;;;2.92;;
52948;SDS011;38812;50.942;3.644;2023-04-25T06:05:13;19.67;;;2.88;;
52948;SDS011;38812;50.942;3.644;2023-04-25T06:07:38;16.88;;;3.08;;
52948;SDS011;38812;50.942;3.644;2023-04-25T06:10:04;11.07;;;2.60;;
52948;SDS011;38812;50.942;3.644;2023-04-25T06:12:32;12.85;;;2.75;;
52948;SDS011;38812;50.942;3.644;2023-04-25T06:15:00;16.33;;;3.03;;
52948;SDS011;38812;50.942;3.644;2023-04-25T06:17:26;14.38;;;2.42;;
52948;SDS011;38812;50.942;3.644;2023-04-25T06:19:51;15.32;;;2.92;;
52948;SDS011;38812;50.942;3.644;2023-04-25T06:22:17;14.98;;;3.20;;
52948;SDS011;38812;50.942;3.644;2023-04-25T06:24:42;11.98;;;2.65;;
52948;SDS011;38812;50.942;3.644;2023-04-25T06:27:07;21.05;;;3.17;;
52948;SDS011;38812;50.942;3.644;2023-04-25T06:29:33;9.65;;;2.50;;
52948;SDS011;38812;50.942;3.644;2023-04-25T06:31:58;13.48;;;2.45;;
52948;SDS011;38812;50.942;3.644;2023-04-25T06:34:23;12.55;;;2.75;;
52948;SDS011;38812;50.942;3.644;2023-04-25T06:36:49;14.40;;;2.42;;
52948;SDS011;38812;50.942;3.644;2023-04-25T06:39:14;13.63;;;2.92;;
52948;SDS011;38812;50.942;3.644;2023-04-25T06:41:40;17.58;;;2.78;;
52948;SDS011;38812;50.942;3.644;2023-04-25T06:44:05;15.20;;;2.08;;
52948;SDS011;38812;50.942;3.644;2023-04-25T06:46:31;13.70;;;3.42;;
52948;SDS011;38812;50.942;3.644;2023-04-25T06:48:56;13.50;;;2.78;;
52948;SDS011;38812;50.942;3.644;2023-04-25T06:51:22;12.93;;;2.50;;
52948;SDS011;38812;50.942;3.644;2023-04-25T06:53:49;22.00;;;2.45;;
52948;SDS011;38812;50.942;3.644;2023-04-25T06:56:14;9.00;;;2.17;;
52948;SDS011;38812;50.942;3.644;2023-04-25T06:58:41;15.13;;;2.35;;
52948;SDS011;38812;50.942;3.644;2023-04-25T07:01:06;13.20;;;2.17;;
52948;SDS011;38812;50.942;3.644;2023-04-25T07:03:31;12.02;;;2.17;;
52948;SDS011;38812;50.942;3.644;2023-04-25T07:05:57;15.23;;;3.42;;
52948;SDS011;38812;50.942;3.644;2023-04-25T07:08:22;8.45;;;2.25;;
52948;SDS011;38812;50.942;3.644;2023-04-25T07:10:47;12.50;;;2.28;;
52948;SDS011;38812;50.942;3.644;2023-04-25T07:13:13;6.40;;;2.13;;
52948;SDS011;38812;50.942;3.644;2023-04-25T07:15:38;8.38;;;2.50;;
52948;SDS011;38812;50.942;3.644;2023-04-25T07:18:04;12.70;;;2.40;;
52948;SDS011;38812;50.942;3.644;2023-04-25T07:20:29;12.68;;;2.78;;
52948;SDS011;38812;50.942;3.644;2023-04-25T07:22:56;10.07;;;2.65;;
52948;SDS011;38812;50.942;3.644;2023-04-25T07:25:22;11.07;;;2.13;;
52948;SDS011;38812;50.942;3.644;2023-04-25T07:27:47;9.05;;;2.78;;
52948;SDS011;38812;50.942;3.644;2023-04-25T07:30:13;14.20;;;3.25;;
52948;SDS011;38812;50.942;3.644;2023-04-25T07:32:38;13.05;;;2.45;;
52948;SDS011;38812;50.942;3.644;2023-04-25T07:35:04;11.00;;;2.22;;
52948;SDS011;38812;50.942;3.644;2023-04-25T07:37:31;12.80;;;3.05;;
52948;SDS011;38812;50.942;3.644;2023-04-25T07:39:57;7.93;;;1.83;;
52948;SDS011;38812;50.942;3.644;2023-04-25T07:42:22;9.05;;;1.95;;
52948;SDS011;38812;50.942;3.644;2023-04-25T07:44:48;11.63;;;1.90;;
52948;SDS011;38812;50.942;3.644;2023-04-25T07:47:13;12.00;;;2.25;;
52948;SDS011;38812;50.942;3.644;2023-04-25T07:49:39;6.78;;;1.70;;
52948;SDS011;38812;50.942;3.644;2023-04-25T07:52:05;11.40;;;3.15;;
52948;SDS011;38812;50.942;3.644;2023-04-25T07:54:34;7.82;;;2.22;;
52948;SDS011;38812;50.942;3.644;2023-04-25T07:57:00;8.35;;;2.53;;
52948;SDS011;38812;50.942;3.644;2023-04-25T07:59:25;5.82;;;1.48;;
52948;SDS011;38812;50.942;3.644;2023-04-25T08:01:50;15.20;;;2.78;;
52948;SDS011;38812;50.942;3.644;2023-04-25T08:04:16;16.08;;;2.20;;
52948;SDS011;38812;50.942;3.644;2023-04-25T08:06:42;5.13;;;1.83;;
52948;SDS011;38812;50.942;3.644;2023-04-25T08:09:07;6.85;;;1.70;;
52948;SDS011;38812;50.942;3.644;2023-04-25T08:11:36;10.15;;;1.70;;
52948;SDS011;38812;50.942;3.644;2023-04-25T08:14:02;5.60;;;1.00;;
52948;SDS011;38812;50.942;3.644;2023-04-25T08:16:27;13.20;;;2.22;;
52948;SDS011;38812;50.942;3.644;2023-04-25T08:18:53;8.32;;;1.38;;
52948;SDS011;38812;50.942;3.644;2023-04-25T08:21:19;8.20;;;1.42;;
52948;SDS011;38812;50.942;3.644;2023-04-25T08:23:45;12.23;;;2.25;;
52948;SDS011;38812;50.942;3.644;2023-04-25T08:26:10;6.43;;;1.15;;
52948;SDS011;38812;50.942;3.644;2023-04-25T08:28:36;5.53;;;1.52;;
52948;SDS011;38812;50.942;3.644;2023-04-25T08:31:01;7.97;;;1.23;;
52948;SDS011;38812;50.942;3.644;2023-04-25T08:33:26;7.70;;;2.00;;
52948;SDS011;38812;50.942;3.644;2023-04-25T08:35:52;12.93;;;1.33;;
52948;SDS011;38812;50.942;3.644;2023-04-25T08:38:17;7.10;;;1.83;;
52948;SDS011;38812;50.942;3.644;2023-04-25T08:40:43;7.60;;;1.30;;
52948;SDS011;38812;50.942;3.644;2023-04-25T08:43:09;11.35;;;1.58;;
52948;SDS011;38812;50.942;3.644;2023-04-25T08:45:39;11.82;;;2.35;;
52948;SDS011;38812;50.942;3.644;2023-04-25T08:48:07;9.90;;;1.92;;
52948;SDS011;38812;50.942;3.644;2023-04-25T08:50:40;15.35;;;2.08;;
52948;SDS011;38812;50.942;3.644;2023-04-25T08:53:09;11.20;;;1.90;;
52948;SDS011;38812;50.942;3.644;2023-04-25T08:55:43;5.10;;;1.40;;
52948;SDS011;38812;50.942;3.644;2023-04-25T08:58:10;7.20;;;1.30;;
52948;SDS011;38812;50.942;3.644;2023-04-25T09:00:37;3.70;;;1.10;;
52948;SDS011;38812;50.942;3.644;2023-04-25T09:03:03;12.45;;;2.30;;
52948;SDS011;38812;50.942;3.644;2023-04-25T09:05:28;10.10;;;1.40;;
52948;SDS011;38812;50.942;3.644;2023-04-25T09:07:54;8.38;;;1.75;;
52948;SDS011;38812;50.942;3.644;2023-04-25T09:10:21;5.47;;;1.27;;
52948;SDS011;38812;50.942;3.644;2023-04-25T09:13:01;6.82;;;1.33;;
52948;SDS011;38812;50.942;3.644;2023-04-25T09:15:31;8.35;;;1.40;;
52948;SDS011;38812;50.942;3.644;2023-04-25T09:17:57;10.65;;;1.98;;
52948;SDS011;38812;50.942;3.644;2023-04-25T09:20:23;12.70;;;1.40;;
52948;SDS011;38812;50.942;3.644;2023-04-25T09:22:50;6.90;;;1.10;;
52948;SDS011;38812;50.942;3.644;2023-04-25T09:25:27;7.40;;;1.27;;
52948;SDS011;38812;50.942;3.644;2023-04-25T09:28:00;4.55;;;1.30;;
52948;SDS011;38812;50.942;3.644;2023-04-25T09:30:30;4.13;;;1.27;;
52948;SDS011;38812;50.942;3.644;2023-04-25T09:32:57;3.35;;;1.00;;
52948;SDS011;38812;50.942;3.644;2023-04-25T09:35:29;10.35;;;1.92;;
52948;SDS011;38812;50.942;3.644;2023-04-25T09:38:01;8.87;;;1.40;;
52948;SDS011;38812;50.942;3.644;2023-04-25T09:40:26;6.80;;;1.17;;
52948;SDS011;38812;50.942;3.644;2023-04-25T09:42:52;15.70;;;1.80;;
52948;SDS011;38812;50.942;3.644;2023-04-25T09:45:17;10.65;;;1.65;;
52948;SDS011;38812;50.942;3.644;2023-04-25T09:47:43;7.38;;;1.33;;
52948;SDS011;38812;50.942;3.644;2023-04-25T09:50:14;7.32;;;1.88;;
52948;SDS011;38812;50.942;3.644;2023-04-25T09:52:41;6.57;;;1.85;;
52948;SDS011;38812;50.942;3.644;2023-04-25T09:55:06;5.60;;;1.38;;
52948;SDS011;38812;50.942;3.644;2023-04-25T09:57:32;5.88;;;1.48;;
52948;SDS011;38812;50.942;3.644;2023-04-25T09:59:58;8.63;;;1.77;;
52948;SDS011;38812;50.942;3.644;2023-04-25T10:02:26;6.55;;;1.10;;
52948;SDS011;38812;50.942;3.644;2023-04-25T10:04:53;2.55;;;0.90;;
52948;SDS011;38812;50.942;3.644;2023-04-25T10:07:22;4.43;;;1.30;;
52948;SDS011;38812;50.942;3.644;2023-04-25T10:09:51;8.38;;;1.60;;
52948;SDS011;38812;50.942;3.644;2023-04-25T10:12:24;2.05;;;0.93;;
52948;SDS011;38812;50.942;3.644;2023-04-25T10:14:50;4.53;;;1.05;;
52948;SDS011;38812;50.942;3.644;2023-04-25T10:17:16;6.75;;;1.25;;
52948;SDS011;38812;50.942;3.644;2023-04-25T10:19:42;3.13;;;1.13;;
52948;SDS011;38812;50.942;3.644;2023-04-25T10:22:18;4.40;;;1.35;;
52948;SDS011;38812;50.942;3.644;2023-04-25T10:24:49;7.20;;;1.55;;
52948;SDS011;38812;50.942;3.644;2023-04-25T10:27:16;6.03;;;1.20;;
52948;SDS011;38812;50.942;3.644;2023-04-25T10:29:42;7.72;;;2.00;;
52948;SDS011;38812;50.942;3.644;2023-04-25T10:32:10;5.53;;;1.25;;
52948;SDS011;38812;50.942;3.644;2023-04-25T10:34:42;5.45;;;0.82;;
52948;SDS011;38812;50.942;3.644;2023-04-25T10:37:11;4.43;;;1.38;;
52948;SDS011;38812;50.942;3.644;2023-04-25T10:39:38;5.95;;;1.30;;
52948;SDS011;38812;50.942;3.644;2023-04-25T10:42:05;4.47;;;1.95;;
52948;SDS011;38812;50.942;3.644;2023-04-25T10:44:32;8.43;;;1.35;;
52948;SDS011;38812;50.942;3.644;2023-04-25T10:47:01;3.60;;;1.58;;
52948;SDS011;38812;50.942;3.644;2023-04-25T10:49:34;5.85;;;1.08;;
52948;SDS011;38812;50.942;3.644;2023-04-25T10:54:52;3.42;;;0.88;;
52948;SDS011;38812;50.942;3.644;2023-04-25T11:00:05;7.60;;;1.00;;
52948;SDS011;38812;50.942;3.644;2023-04-25T11:08:00;4.10;;;1.07;;
52948;SDS011;38812;50.942;3.644;2023-04-25T11:10:29;5.75;;;1.20;;
52948;SDS011;38812;50.942;3.644;2023-04-25T11:12:56;4.78;;;0.95;;
52948;SDS011;38812;50.942;3.644;2023-04-25T11:15:23;5.38;;;1.00;;
52948;SDS011;38812;50.942;3.644;2023-04-25T11:17:50;7.75;;;1.10;;
52948;SDS011;38812;50.942;3.644;2023-04-25T11:20:16;4.45;;;0.98;;
52948;SDS011;38812;50.942;3.644;2023-04-25T11:22:42;4.50;;;1.52;;
52948;SDS011;38812;50.942;3.644;2023-04-25T11:25:10;5.07;;;1.13;;
52948;SDS011;38812;50.942;3.644;2023-04-25T11:27:38;9.10;;;1.60;;
52948;SDS011;38812;50.942;3.644;2023-04-25T11:30:14;6.03;;;1.60;;
52948;SDS011;38812;50.942;3.644;2023-04-25T11:32:41;9.35;;;1.65;;
52948;SDS011;38812;50.942;3.644;2023-04-25T11:35:08;6.43;;;1.80;;
52948;SDS011;38812;50.942;3.644;2023-04-25T11:37:34;9.57;;;1.70;;
52948;SDS011;38812;50.942;3.644;2023-04-25T11:40:00;5.93;;;1.42;;
52948;SDS011;38812;50.942;3.644;2023-04-25T11:42:26;7.15;;;1.52;;
52948;SDS011;38812;50.942;3.644;2023-04-25T11:44:51;8.57;;;1.58;;
52948;SDS011;38812;50.942;3.644;2023-04-25T11:47:17;4.50;;;1.08;;
52948;SDS011;38812;50.942;3.644;2023-04-25T11:49:42;7.72;;;1.50;;
52948;SDS011;38812;50.942;3.644;2023-04-25T11:52:08;6.85;;;1.50;;
52948;SDS011;38812;50.942;3.644;2023-04-25T11:54:36;5.57;;;1.50;;
52948;SDS011;38812;50.942;3.644;2023-04-25T11:57:02;9.20;;;1.33;;
52948;SDS011;38812;50.942;3.644;2023-04-25T11:59:28;3.55;;;1.15;;
52948;SDS011;38812;50.942;3.644;2023-04-25T12:01:54;7.35;;;1.92;;
52948;SDS011;38812;50.942;3.644;2023-04-25T12:04:20;7.75;;;1.33;;
52948;SDS011;38812;50.942;3.644;2023-04-25T12:06:48;3.95;;;1.10;;
52948;SDS011;38812;50.942;3.644;2023-04-25T12:09:31;4.35;;;0.88;;
52948;SDS011;38812;50.942;3.644;2023-04-25T12:11:58;5.25;;;1.17;;
52948;SDS011;38812;50.942;3.644;2023-04-25T12:14:28;7.43;;;1.10;;
52948;SDS011;38812;50.942;3.644;2023-04-25T12:16:56;6.63;;;1.20;;
52948;SDS011;38812;50.942;3.644;2023-04-25T12:19:26;6.20;;;1.02;;
52948;SDS011;38812;50.942;3.644;2023-04-25T12:21:57;4.55;;;1.35;;
52948;SDS011;38812;50.942;3.644;2023-04-25T12:24:23;5.13;;;0.90;;
52948;SDS011;38812;50.942;3.644;2023-04-25T12:29:20;6.40;;;1.20;;
52948;SDS011;38812;50.942;3.644;2023-04-25T12:31:48;4.65;;;0.98;;
52948;SDS011;38812;50.942;3.644;2023-04-25T12:34:14;6.75;;;1.33;;
52948;SDS011;38812;50.942;3.644;2023-04-25T12:36:40;9.10;;;2.72;;
52948;SDS011;38812;50.942;3.644;2023-04-25T12:39:06;4.45;;;1.35;;
52948;SDS011;38812;50.942;3.644;2023-04-25T12:41:31;7.30;;;1.23;;
52948;SDS011;38812;50.942;3.644;2023-04-25T12:43:57;4.82;;;1.00;;
52948;SDS011;38812;50.942;3.644;2023-04-25T12:46:22;7.18;;;1.58;;
52948;SDS011;38812;50.942;3.644;2023-04-25T12:48:48;11.73;;;1.52;;
52948;SDS011;38812;50.942;3.644;2023-04-25T12:51:14;5.15;;;1.15;;
52948;SDS011;38812;50.942;3.644;2023-04-25T12:53:39;7.82;;;1.40;;
52948;SDS011;38812;50.942;3.644;2023-04-25T12:56:06;6.07;;;1.27;;
52948;SDS011;38812;50.942;3.644;2023-04-25T12:58:32;10.07;;;1.42;;
52948;SDS011;38812;50.942;3.644;2023-04-25T13:00:58;6.65;;;2.05;;
52948;SDS011;38812;50.942;3.644;2023-04-25T13:03:24;6.90;;;1.40;;
52948;SDS011;38812;50.942;3.644;2023-04-25T13:05:50;4.47;;;1.40;;
52948;SDS011;38812;50.942;3.644;2023-04-25T13:08:17;6.88;;;1.13;;
52948;SDS011;38812;50.942;3.644;2023-04-25T13:10:43;5.07;;;1.10;;
52948;SDS011;38812;50.942;3.644;2023-04-25T13:13:08;7.15;;;1.88;;
52948;SDS011;38812;50.942;3.644;2023-04-25T13:15:34;4.82;;;1.15;;
52948;SDS011;38812;50.942;3.644;2023-04-25T13:18:00;7.88;;;1.65;;
52948;SDS011;38812;50.942;3.644;2023-04-25T13:20:25;10.65;;;1.63;;
52948;SDS011;38812;50.942;3.644;2023-04-25T13:22:51;3.92;;;1.00;;
52948;SDS011;38812;50.942;3.644;2023-04-25T13:25:16;6.20;;;1.27;;
52948;SDS011;38812;50.942;3.644;2023-04-25T13:27:41;26.08;;;13.10;;
52948;SDS011;38812;50.942;3.644;2023-04-25T13:30:09;4.20;;;1.95;;
52948;SDS011;38812;50.942;3.644;2023-04-25T13:32:34;12.50;;;1.77;;
52948;SDS011;38812;50.942;3.644;2023-04-25T13:35:04;32.72;;;16.80;;
52948;SDS011;38812;50.942;3.644;2023-04-25T13:37:30;11.57;;;2.00;;
52948;SDS011;38812;50.942;3.644;2023-04-25T13:39:58;6.25;;;2.47;;
52948;SDS011;38812;50.942;3.644;2023-04-25T13:42:29;7.00;;;3.28;;
52948;SDS011;38812;50.942;3.644;2023-04-25T13:44:55;20.15;;;8.13;;
52948;SDS011;38812;50.942;3.644;2023-04-25T13:47:21;12.65;;;5.78;;
52948;SDS011;38812;50.942;3.644;2023-04-25T13:49:47;6.72;;;1.42;;
52948;SDS011;38812;50.942;3.644;2023-04-25T13:52:12;5.32;;;1.08;;
52948;SDS011;38812;50.942;3.644;2023-04-25T13:54:37;8.32;;;1.67;;
52948;SDS011;38812;50.942;3.644;2023-04-25T13:57:03;9.73;;;1.85;;
52948;SDS011;38812;50.942;3.644;2023-04-25T13:59:28;9.13;;;1.35;;
52948;SDS011;38812;50.942;3.644;2023-04-25T14:01:54;12.32;;;2.42;;
52948;SDS011;38812;50.942;3.644;2023-04-25T14:04:19;12.02;;;1.80;;
52948;SDS011;38812;50.942;3.644;2023-04-25T14:06:45;6.10;;;1.58;;
52948;SDS011;38812;50.942;3.644;2023-04-25T14:09:10;6.18;;;1.73;;
52948;SDS011;38812;50.942;3.644;2023-04-25T14:11:37;3.33;;;1.10;;
52948;SDS011;38812;50.942;3.644;2023-04-25T14:14:03;6.13;;;1.25;;
52948;SDS011;38812;50.942;3.644;2023-04-25T14:16:29;9.93;;;1.60;;
52948;SDS011;38812;50.942;3.644;2023-04-25T14:18:55;1.75;;;1.20;;
52948;SDS011;38812;50.942;3.644;2023-04-25T14:21:21;15.80;;;6.68;;
52948;SDS011;38812;50.942;3.644;2023-04-25T14:23:46;13.38;;;3.13;;
52948;SDS011;38812;50.942;3.644;2023-04-25T14:26:12;9.80;;;3.17;;
52948;SDS011;38812;50.942;3.644;2023-04-25T14:28:38;5.20;;;1.50;;
52948;SDS011;38812;50.942;3.644;2023-04-25T14:31:03;3.45;;;1.10;;
52948;SDS011;38812;50.942;3.644;2023-04-25T14:33:29;7.70;;;1.35;;
52948;SDS011;38812;50.942;3.644;2023-04-25T14:35:55;12.63;;;4.35;;
52948;SDS011;38812;50.942;3.644;2023-04-25T14:38:21;8.48;;;1.80;;
52948;SDS011;38812;50.942;3.644;2023-04-25T14:40:48;4.95;;;0.93;;
52948;SDS011;38812;50.942;3.644;2023-04-25T14:43:14;9.88;;;1.08;;
52948;SDS011;38812;50.942;3.644;2023-04-25T14:45:39;4.93;;;2.00;;
52948;SDS011;38812;50.942;3.644;2023-04-25T14:48:05;5.43;;;1.35;;